This is the latest recevied weather packets stored in our database for station/object N5YHM-13. If no packets are shown the sender has not sent any weather packets the latest 1 day(s).
| Time | Temp. | Humidity | Pressure | Rain* | Wind** | Luminosity | Snow |
|---|---|---|---|---|---|---|---|
| 1778008918 | 27.78° C | 65% | 1014.1 hPa | 0 mm | 0 m/s | 27 W/m² | - |
| 1778008616 | 27.78° C | 64% | 1014.4 hPa | 0 mm | 0 m/s | 24 W/m² | - |
| 1778008314 | 27.78° C | 65% | 1014.2 hPa | 0 mm | 0 m/s | 31 W/m² | - |
| 1778008010 | 27.78° C | 65% | 1014.4 hPa | 0 mm | 0.45 m/s, 228° | 26 W/m² | - |
| 1778007710 | 27.78° C | 65% | 1014.6 hPa | 0 mm | 0.45 m/s, 210° | 24 W/m² | - |
| 1778007406 | 27.78° C | 65% | 1014.5 hPa | 0 mm | 0.45 m/s, 226° | 24 W/m² | - |
| 1778007103 | 27.78° C | 63% | 1014.7 hPa | 0 mm | 0.45 m/s, 237° | 26 W/m² | - |
| 1778006799 | 27.78° C | 65% | 1015.1 hPa | 0 mm | 0 m/s | 24 W/m² | - |
| 1778006497 | 27.78° C | 63% | 1015.2 hPa | 0 mm | 0 m/s | 77 W/m² | - |
| 1778006193 | 27.22° C | 65% | 1014.9 hPa | 0 mm | 0.89 m/s, 197° | 20 W/m² | - |
| 1778005891 | 27.22° C | 66% | 1015 hPa | 0 mm | 1.34 m/s, 139° | 30 W/m² | - |
| 1778005587 | 27.78° C | 62% | 1015 hPa | 0 mm | 0 m/s | 28 W/m² | - |
| 1778005284 | 27.78° C | 65% | 1015.1 hPa | 0 mm | 0.45 m/s, 207° | 59 W/m² | - |
| 1778004981 | 27.22° C | 68% | 1015 hPa | 0 mm | 0 m/s | 281 W/m² | - |
| 1778004678 | 27.22° C | 66% | 1015 hPa | 0 mm | 0 m/s | 16 W/m² | - |
| 1778004374 | 27.22° C | 68% | 1015.1 hPa | 0 mm | 0 m/s | 15 W/m² | - |
| 1778004072 | 26.67° C | 68% | 1015.3 hPa | 0 mm | 0 m/s | 16 W/m² | - |
| 1778003767 | 27.22° C | 68% | 1015 hPa | 0 mm | 0.45 m/s, 215° | 20 W/m² | - |
| 1778003464 | 26.67° C | 68% | 1015.2 hPa | 0 mm | 0 m/s | 15 W/m² | - |
| 1778003160 | 26.67° C | 69% | 1015 hPa | 0 mm | 0 m/s | 17 W/m² | - |
| 1778002856 | 26.67° C | 70% | 1015 hPa | 0 mm | 0 m/s | 14 W/m² | - |
| 1778002553 | 26.67° C | 70% | 1015.2 hPa | 0 mm | 0.45 m/s, 233° | 16 W/m² | - |
| 1778002250 | 26.11° C | 70% | 1015 hPa | 0 mm | 0 m/s | 17 W/m² | - |
| 1778001948 | 26.11° C | 70% | 1015.2 hPa | 0 mm | 0.89 m/s, 150° | 13 W/m² | - |
| 1778001644 | 26.11° C | 71% | 1015.3 hPa | 0 mm | 0.45 m/s, 213° | 27 W/m² | - |
* Rain latest hour (hover to see other rain measurements)
** Current wind speed in m/s (hover to see current wind gust speed)